createdAt,value
2019-02-26T00:00:14.837Z,11.50
2019-02-26T00:01:19.166Z,11.00
2019-02-26T00:02:24.180Z,11.10
2019-02-26T00:03:30.865Z,11.00
2019-02-26T00:04:36.821Z,11.20
2019-02-26T00:05:40.207Z,10.90
2019-02-26T00:06:49.119Z,11.10
2019-02-26T00:07:53.012Z,11.10
2019-02-26T00:08:59.536Z,11.10
2019-02-26T00:10:04.522Z,10.50
2019-02-26T00:11:08.505Z,11.20
2019-02-26T00:12:13.260Z,10.70
2019-02-26T00:13:18.766Z,11.10
2019-02-26T00:14:24.999Z,10.70
2019-02-26T00:15:33.384Z,10.40
2019-02-26T00:16:37.661Z,9.90
2019-02-26T00:17:43.170Z,10.00
2019-02-26T00:18:46.296Z,9.90
2019-02-26T00:19:51.815Z,9.70
2019-02-26T00:20:59.042Z,10.10
2019-02-26T00:22:02.838Z,9.60
2019-02-26T00:23:08.347Z,10.00
2019-02-26T00:24:14.703Z,10.20
2019-02-26T00:25:20.415Z,10.20
2019-02-26T00:26:24.866Z,10.30
2019-02-26T00:27:31.308Z,10.10
2019-02-26T00:28:36.443Z,10.80
2019-02-26T00:29:41.388Z,10.20
2019-02-26T00:30:46.894Z,10.10
2019-02-26T00:31:53.012Z,9.90
2019-02-26T00:33:00.032Z,9.80
2019-02-26T00:34:03.416Z,9.70
2019-02-26T00:35:08.940Z,10.00
2019-02-26T00:36:15.395Z,10.50
2019-02-26T00:37:21.713Z,10.00
2019-02-26T00:38:25.448Z,10.60
2019-02-26T00:39:31.530Z,10.20
2019-02-26T00:40:37.151Z,10.00
2019-02-26T00:41:41.984Z,10.90
2019-02-26T00:42:50.258Z,11.30
2019-02-26T00:43:53.493Z,10.70
2019-02-26T00:45:00.950Z,9.80
2019-02-26T00:46:05.649Z,10.00
2019-02-26T00:47:09.543Z,9.40
2019-02-26T00:48:15.017Z,9.90
2019-02-26T00:49:21.599Z,10.40
2019-02-26T00:50:27.973Z,10.60
2019-02-26T00:51:31.549Z,10.80
2019-02-26T00:52:38.883Z,11.20
2019-02-26T00:53:42.558Z,10.40
2019-02-26T00:54:48.069Z,11.40
2019-02-26T00:55:54.285Z,11.00
2019-02-26T00:57:01.117Z,11.00
2019-02-26T00:58:05.989Z,11.10
2019-02-26T00:59:10.099Z,11.00
2019-02-26T01:00:15.610Z,11.10
2019-02-26T01:01:21.763Z,10.30
2019-02-26T01:02:26.621Z,10.60
2019-02-26T01:03:32.138Z,10.20
2019-02-26T01:04:39.061Z,10.10
2019-02-26T01:05:45.008Z,10.40
2019-02-26T01:06:48.647Z,10.30
2019-02-26T01:07:54.457Z,10.90
2019-02-26T01:09:01.950Z,10.90
2019-02-26T01:10:05.176Z,11.00
2019-02-26T01:11:10.684Z,11.30
2019-02-26T01:12:18.226Z,11.50
2019-02-26T01:13:22.520Z,11.30
2019-02-26T01:14:27.206Z,11.50
2019-02-26T01:15:32.719Z,11.80
2019-02-26T01:16:39.423Z,11.20
2019-02-26T01:17:43.726Z,11.20
2019-02-26T01:18:50.958Z,10.80
2019-02-26T01:19:56.387Z,11.30
2019-02-26T01:21:01.993Z,11.60
2019-02-26T01:22:05.753Z,11.50
2019-02-26T01:23:11.262Z,11.60
2019-02-26T01:24:16.769Z,11.30
2019-02-26T01:25:22.943Z,11.20
2019-02-26T01:26:27.919Z,11.90
2019-02-26T01:27:33.292Z,11.10
2019-02-26T01:28:39.645Z,11.50
2019-02-26T01:29:44.607Z,11.20
2019-02-26T01:30:53.678Z,11.40
2019-02-26T01:31:55.331Z,11.50
2019-02-26T01:33:03.230Z,11.70
2019-02-26T01:34:06.337Z,11.90
2019-02-26T01:35:12.930Z,11.20
2019-02-26T01:36:19.146Z,11.30
2019-02-26T01:37:22.866Z,11.60
2019-02-26T01:38:28.369Z,11.70
2019-02-26T01:39:35.659Z,11.20
2019-02-26T01:40:41.814Z,11.80
2019-02-26T01:41:46.064Z,11.10
2019-02-26T01:42:52.854Z,11.20
2019-02-26T01:43:55.913Z,11.20
2019-02-26T01:45:01.407Z,11.40
2019-02-26T01:46:07.833Z,11.50
2019-02-26T01:47:12.427Z,11.20
2019-02-26T01:48:18.600Z,11.00
2019-02-26T01:49:24.157Z,11.60
2019-02-26T01:50:30.872Z,11.30
2019-02-26T01:51:34.456Z,11.00
2019-02-26T01:52:39.974Z,10.90
2019-02-26T01:53:46.937Z,10.30
2019-02-26T01:54:51.286Z,10.00
2019-02-26T01:55:56.487Z,9.90
2019-02-26T01:57:01.994Z,9.50
2019-02-26T01:58:07.512Z,10.10
2019-02-26T01:59:13.011Z,10.50
2019-02-26T02:00:18.518Z,10.30
2019-02-26T02:01:26.090Z,9.70
2019-02-26T02:02:30.302Z,9.70
2019-02-26T02:03:35.036Z,9.90
2019-02-26T02:04:41.199Z,9.60
2019-02-26T02:05:47.953Z,9.70
2019-02-26T02:06:51.562Z,9.50
2019-02-26T02:07:57.070Z,9.90
2019-02-26T02:09:02.572Z,10.20
2019-02-26T02:10:08.087Z,9.50
2019-02-26T02:11:13.587Z,9.70
2019-02-26T02:12:19.105Z,10.00
2019-02-26T02:13:28.276Z,9.10
2019-02-26T02:14:30.112Z,9.90
2019-02-26T02:15:37.393Z,9.30
2019-02-26T02:16:41.127Z,9.40
2019-02-26T02:17:46.628Z,9.80
2019-02-26T02:18:53.574Z,9.60
2019-02-26T02:19:57.649Z,9.60
2019-02-26T02:21:03.147Z,9.70
2019-02-26T02:22:10.050Z,10.10
2019-02-26T02:23:14.167Z,9.70
2019-02-26T02:24:20.610Z,10.00
2019-02-26T02:25:28.986Z,9.30
2019-02-26T02:26:30.690Z,9.20
2019-02-26T02:27:36.201Z,9.70
2019-02-26T02:28:41.701Z,8.90
2019-02-26T02:29:48.836Z,9.20
2019-02-26T02:30:52.721Z,9.50
2019-02-26T02:31:59.431Z,9.40
2019-02-26T02:33:03.731Z,8.80
2019-02-26T02:34:09.242Z,9.20
2019-02-26T02:35:17.818Z,9.20
2019-02-26T02:36:22.905Z,8.90
2019-02-26T02:37:26.956Z,9.20
2019-02-26T02:38:31.277Z,9.00
2019-02-26T02:39:36.778Z,9.10
2019-02-26T02:40:43.156Z,9.80
2019-02-26T02:41:50.891Z,9.00
2019-02-26T02:42:53.305Z,9.10
2019-02-26T02:43:58.806Z,9.30
2019-02-26T02:45:05.162Z,9.10
2019-02-26T02:46:09.823Z,9.60
2019-02-26T02:47:15.330Z,9.30
2019-02-26T02:48:20.833Z,9.80
2019-02-26T02:49:26.338Z,9.60
2019-02-26T02:50:31.856Z,9.90
2019-02-26T02:51:39.490Z,9.60
2019-02-26T02:52:42.865Z,10.10
2019-02-26T02:53:50.515Z,11.20
2019-02-26T02:54:53.881Z,10.40
2019-02-26T02:55:59.383Z,10.30
2019-02-26T02:57:07.395Z,10.10
2019-02-26T02:58:13.066Z,10.90
2019-02-26T02:59:16.547Z,10.30
2019-02-26T03:00:23.913Z,9.60
2019-02-26T03:01:28.631Z,9.80
2019-02-26T03:02:37.448Z,9.60
2019-02-26T03:03:37.934Z,9.70
2019-02-26T03:04:43.449Z,9.80
2019-02-26T03:05:48.946Z,9.90
2019-02-26T03:06:55.597Z,10.50
2019-02-26T03:07:59.958Z,10.70
2019-02-26T03:09:06.871Z,10.30
2019-02-26T03:10:12.092Z,9.70
2019-02-26T03:11:16.481Z,10.30
2019-02-26T03:12:21.986Z,10.30
2019-02-26T03:13:28.041Z,10.00
2019-02-26T03:14:34.080Z,10.10
2019-02-26T03:15:38.509Z,10.10
2019-02-26T03:16:45.686Z,10.30
2019-02-26T03:17:49.521Z,10.80
2019-02-26T03:18:55.030Z,10.90
2019-02-26T03:20:02.739Z,10.50
2019-02-26T03:21:06.042Z,10.70
2019-02-26T03:22:12.852Z,11.70
2019-02-26T03:23:20.040Z,11.50
2019-02-26T03:24:25.354Z,10.60
2019-02-26T03:25:29.099Z,9.90
2019-02-26T03:26:33.574Z,10.50
2019-02-26T03:27:40.595Z,10.30
2019-02-26T03:28:48.019Z,10.00
2019-02-26T03:29:52.403Z,9.70
2019-02-26T03:30:55.615Z,10.00
2019-02-26T03:32:01.138Z,9.40
2019-02-26T03:33:06.620Z,9.10
2019-02-26T03:34:18.984Z,9.00
2019-02-26T03:35:19.687Z,9.70
2019-02-26T03:36:23.143Z,9.50
2019-02-26T03:37:29.353Z,9.00
2019-02-26T03:38:34.154Z,9.20
2019-02-26T03:39:39.655Z,9.30
2019-02-26T03:40:45.164Z,9.00
2019-02-26T03:41:51.567Z,9.10
2019-02-26T03:42:56.180Z,9.70
2019-02-26T03:44:03.295Z,10.10
2019-02-26T03:45:07.192Z,9.30
2019-02-26T03:46:12.700Z,8.70
2019-02-26T03:47:18.822Z,9.00
2019-02-26T03:48:23.724Z,9.00
2019-02-26T03:49:29.220Z,8.90
2019-02-26T03:50:34.726Z,8.70
2019-02-26T03:51:40.238Z,8.60
2019-02-26T03:52:45.759Z,8.30
2019-02-26T03:53:51.247Z,8.30
2019-02-26T03:54:56.752Z,8.40
2019-02-26T03:56:04.585Z,7.90
2019-02-26T03:57:09.005Z,8.70
2019-02-26T03:58:13.272Z,8.20
2019-02-26T03:59:18.779Z,7.90
2019-02-26T04:00:24.286Z,8.60
2019-02-26T04:01:29.795Z,8.10
2019-02-26T04:02:37.432Z,7.60
2019-02-26T04:03:42.501Z,7.80
2019-02-26T04:04:51.771Z,7.90
2019-02-26T04:05:51.825Z,8.30
2019-02-26T04:06:58.493Z,7.70
2019-02-26T04:08:04.496Z,7.80
2019-02-26T04:09:09.158Z,7.80
2019-02-26T04:10:13.929Z,7.90
2019-02-26T04:11:20.087Z,8.50
2019-02-26T04:12:24.860Z,7.80
2019-02-26T04:13:30.370Z,8.20
2019-02-26T04:14:35.874Z,7.90
2019-02-26T04:15:41.382Z,8.40
2019-02-26T04:16:46.898Z,7.20
2019-02-26T04:17:52.392Z,7.40
2019-02-26T04:18:57.904Z,8.20
2019-02-26T04:20:05.607Z,8.50
2019-02-26T04:21:11.763Z,7.90
2019-02-26T04:22:15.241Z,8.50
2019-02-26T04:23:21.896Z,8.70
2019-02-26T04:24:26.837Z,8.30
2019-02-26T04:25:33.336Z,8.10
2019-02-26T04:26:36.449Z,8.10
2019-02-26T04:27:44.052Z,8.60
2019-02-26T04:28:47.608Z,8.20
2019-02-26T04:29:52.969Z,8.90
2019-02-26T04:30:58.474Z,8.90
2019-02-26T04:32:03.982Z,10.50
2019-02-26T04:33:11.451Z,10.60
2019-02-26T04:34:15.004Z,9.80
2019-02-26T04:35:20.507Z,9.70
2019-02-26T04:36:26.041Z,10.20
2019-02-26T04:37:32.740Z,9.90
2019-02-26T04:38:37.022Z,10.00
2019-02-26T04:39:44.976Z,9.80
2019-02-26T04:40:48.038Z,9.80
2019-02-26T04:41:53.546Z,9.70
2019-02-26T04:42:59.440Z,9.80
2019-02-26T04:44:06.113Z,9.30
2019-02-26T04:45:10.066Z,9.20
2019-02-26T04:46:15.569Z,8.80
2019-02-26T04:47:21.941Z,9.20
2019-02-26T04:48:29.091Z,9.00
2019-02-26T04:49:33.985Z,8.80
2019-02-26T04:50:38.715Z,9.00
2019-02-26T04:51:45.045Z,9.60
2019-02-26T04:52:48.608Z,9.40
2019-02-26T04:53:56.053Z,8.80
2019-02-26T04:54:59.619Z,9.30
2019-02-26T04:56:06.349Z,8.80
2019-02-26T04:57:10.636Z,8.60
2019-02-26T04:58:18.397Z,8.40
2019-02-26T04:59:21.650Z,9.00
2019-02-26T05:00:29.925Z,9.00
2019-02-26T05:01:34.668Z,8.00
2019-02-26T05:02:38.164Z,8.80
2019-02-26T05:03:43.672Z,8.70
2019-02-26T05:04:49.190Z,8.80
2019-02-26T05:05:57.245Z,9.70
2019-02-26T05:07:04.390Z,9.70
2019-02-26T05:08:07.524Z,9.50
2019-02-26T05:09:11.205Z,8.40
2019-02-26T05:10:16.723Z,9.20
2019-02-26T05:11:31.381Z,9.20
2019-02-26T05:12:30.326Z,9.60
2019-02-26T05:13:34.622Z,9.00
2019-02-26T05:14:38.745Z,9.00
2019-02-26T05:15:44.246Z,8.60
2019-02-26T05:16:49.755Z,8.30
2019-02-26T05:17:55.258Z,8.80
2019-02-26T05:19:00.789Z,8.60
2019-02-26T05:20:09.241Z,8.80
2019-02-26T05:21:12.963Z,8.50
2019-02-26T05:22:19.442Z,8.70
2019-02-26T05:23:24.156Z,9.10
2019-02-26T05:24:28.295Z,9.00
2019-02-26T05:25:35.090Z,8.90
2019-02-26T05:26:39.317Z,8.80
2019-02-26T05:27:47.497Z,9.10
2019-02-26T05:28:51.513Z,9.50
2019-02-26T05:29:55.835Z,8.70
2019-02-26T05:31:03.451Z,8.30
2019-02-26T05:32:09.102Z,7.90
2019-02-26T05:33:12.354Z,8.10
2019-02-26T05:34:20.443Z,8.30
2019-02-26T05:35:25.246Z,7.90
2019-02-26T05:36:31.098Z,8.80
2019-02-26T05:37:35.353Z,8.30
2019-02-26T05:38:39.878Z,9.10
2019-02-26T05:39:46.826Z,8.60
2019-02-26T05:40:53.187Z,8.60
2019-02-26T05:41:58.941Z,8.00
2019-02-26T05:43:04.153Z,8.50
2019-02-26T05:44:10.297Z,9.30
2019-02-26T05:45:12.920Z,9.80
2019-02-26T05:46:19.497Z,9.70
2019-02-26T05:47:24.674Z,9.10
2019-02-26T05:48:29.442Z,9.00
2019-02-26T05:49:37.748Z,8.80
2019-02-26T05:50:42.007Z,9.90
2019-02-26T05:51:45.951Z,9.30
2019-02-26T05:52:57.566Z,9.00
2019-02-26T05:54:01.722Z,9.60
2019-02-26T05:55:02.482Z,9.60
2019-02-26T05:56:08.856Z,9.60
2019-02-26T05:57:25.955Z,9.30
2019-02-26T05:58:21.414Z,9.60
2019-02-26T05:59:24.501Z,10.10
2019-02-26T06:00:33.072Z,9.50
2019-02-26T06:01:35.512Z,9.80
2019-02-26T06:02:44.271Z,9.40
2019-02-26T06:03:48.709Z,10.10
2019-02-26T06:04:52.049Z,9.60
2019-02-26T06:05:58.340Z,9.90
2019-02-26T06:07:04.747Z,9.60
2019-02-26T06:08:08.551Z,9.90
2019-02-26T06:09:14.062Z,9.30
2019-02-26T06:10:21.559Z,9.80
2019-02-26T06:11:28.354Z,9.60
2019-02-26T06:12:32.738Z,9.20
2019-02-26T06:13:38.234Z,8.80
2019-02-26T06:14:41.591Z,8.70
2019-02-26T06:15:47.114Z,7.80
2019-02-26T06:16:53.768Z,8.40
2019-02-26T06:17:58.107Z,8.90
2019-02-26T06:19:03.616Z,8.70
2019-02-26T06:20:11.063Z,9.30
2019-02-26T06:21:16.645Z,9.40
2019-02-26T06:22:21.316Z,9.20
2019-02-26T06:23:28.059Z,8.60
2019-02-26T06:24:33.240Z,9.00
2019-02-26T06:25:36.656Z,9.70
2019-02-26T06:26:43.123Z,9.60
2019-02-26T06:27:47.665Z,9.80
2019-02-26T06:28:53.166Z,9.70
2019-02-26T06:30:00.754Z,10.20
2019-02-26T06:31:04.177Z,9.60
2019-02-26T06:32:11.888Z,8.50
2019-02-26T06:33:16.367Z,10.30
2019-02-26T06:34:21.408Z,9.90
2019-02-26T06:35:26.208Z,10.20
2019-02-26T06:36:31.707Z,9.20
2019-02-26T06:37:37.766Z,9.40
2019-02-26T06:38:42.728Z,8.80
2019-02-26T06:39:50.577Z,9.10
2019-02-26T06:40:53.745Z,9.80
2019-02-26T06:41:59.245Z,9.60
2019-02-26T06:43:04.748Z,10.40
2019-02-26T06:44:10.260Z,10.30
2019-02-26T06:45:16.803Z,9.40
2019-02-26T06:46:21.270Z,10.10
2019-02-26T06:47:29.255Z,9.70
2019-02-26T06:48:32.414Z,10.20
2019-02-26T06:49:37.782Z,10.70
2019-02-26T06:50:43.554Z,10.90
2019-02-26T06:51:49.812Z,10.00
2019-02-26T06:52:54.308Z,9.00
2019-02-26T06:54:01.098Z,9.30
2019-02-26T06:55:07.690Z,9.30
2019-02-26T06:56:10.821Z,10.00
2019-02-26T06:57:16.327Z,9.60
2019-02-26T06:58:21.839Z,9.50
2019-02-26T06:59:29.374Z,9.50
2019-02-26T07:00:32.870Z,9.30
2019-02-26T07:01:39.634Z,9.50
2019-02-26T07:02:46.205Z,9.60
2019-02-26T07:03:49.362Z,10.00
2019-02-26T07:04:54.870Z,10.00
2019-02-26T07:06:04.113Z,10.20
2019-02-26T07:07:07.644Z,9.70
2019-02-26T07:08:11.388Z,9.60
2019-02-26T07:09:18.219Z,9.40
2019-02-26T07:10:26.022Z,10.00
2019-02-26T07:11:28.646Z,10.30
2019-02-26T07:12:33.408Z,10.00
2019-02-26T07:13:41.031Z,10.20
2019-02-26T07:14:45.993Z,9.90
2019-02-26T07:15:49.942Z,10.00
2019-02-26T07:16:56.557Z,10.30
2019-02-26T07:18:04.475Z,9.90
2019-02-26T07:19:07.059Z,10.00
2019-02-26T07:20:11.954Z,10.50
2019-02-26T07:21:17.457Z,9.70
2019-02-26T07:22:22.969Z,9.20
2019-02-26T07:23:29.782Z,10.40
2019-02-26T07:24:33.978Z,10.40
2019-02-26T07:25:42.159Z,9.90
2019-02-26T07:26:46.374Z,9.90
2019-02-26T07:27:51.390Z,9.50
2019-02-26T07:28:56.005Z,9.60
2019-02-26T07:30:01.506Z,9.30
2019-02-26T07:31:08.116Z,9.20
2019-02-26T07:32:14.597Z,9.60
2019-02-26T07:33:18.029Z,9.90
2019-02-26T07:34:25.075Z,9.00
2019-02-26T07:35:30.586Z,9.10
2019-02-26T07:36:34.551Z,8.90
2019-02-26T07:37:40.361Z,8.70
2019-02-26T07:38:48.521Z,8.40
2019-02-26T07:39:51.546Z,8.60
2019-02-26T07:40:58.907Z,8.90
2019-02-26T07:42:02.079Z,8.40
2019-02-26T07:43:11.591Z,8.50
2019-02-26T07:44:15.547Z,9.00
2019-02-26T07:45:21.872Z,8.60
2019-02-26T07:46:24.111Z,8.40
2019-02-26T07:47:31.455Z,8.40
2019-02-26T07:48:35.114Z,8.00
2019-02-26T07:49:40.624Z,8.20
2019-02-26T07:50:48.263Z,8.50
2019-02-26T07:51:51.640Z,8.40
2019-02-26T07:52:59.256Z,8.80
2019-02-26T07:54:02.654Z,8.80
2019-02-26T07:55:09.052Z,8.80
2019-02-26T07:56:13.668Z,8.90
2019-02-26T07:57:20.723Z,9.30
2019-02-26T07:58:24.689Z,9.30
2019-02-26T07:59:32.386Z,9.20
2019-02-26T08:00:37.741Z,9.40
2019-02-26T08:01:43.065Z,9.10
2019-02-26T08:02:46.709Z,8.90
2019-02-26T08:03:53.255Z,9.20
2019-02-26T08:04:57.726Z,9.00
2019-02-26T08:06:06.510Z,8.70
2019-02-26T08:07:08.755Z,8.60
2019-02-26T08:08:14.815Z,9.30
2019-02-26T08:09:21.837Z,9.10
2019-02-26T08:10:25.263Z,9.20
2019-02-26T08:11:30.766Z,8.80
2019-02-26T08:12:38.069Z,9.00
2019-02-26T08:13:41.781Z,8.90
2019-02-26T08:14:47.764Z,9.20
2019-02-26T08:15:54.981Z,9.20
2019-02-26T08:16:59.405Z,8.80
2019-02-26T08:18:05.334Z,9.10
2019-02-26T08:19:09.330Z,9.70
2019-02-26T08:20:15.106Z,9.30
2019-02-26T08:21:22.275Z,9.40
2019-02-26T08:22:27.516Z,9.10
2019-02-26T08:23:31.353Z,8.80
2019-02-26T08:24:36.885Z,9.10
2019-02-26T08:25:42.370Z,9.00
2019-02-26T08:26:49.674Z,9.30
2019-02-26T08:27:53.958Z,9.10
2019-02-26T08:29:00.260Z,9.00
2019-02-26T08:30:04.404Z,9.20
2019-02-26T08:31:13.317Z,9.40
2019-02-26T08:32:18.137Z,9.00
2019-02-26T08:33:20.931Z,9.10
2019-02-26T08:34:26.439Z,9.70
2019-02-26T08:35:31.938Z,9.30
2019-02-26T08:36:37.450Z,9.10
2019-02-26T08:37:42.959Z,9.10
2019-02-26T08:38:48.463Z,8.80
2019-02-26T08:39:54.933Z,8.40
2019-02-26T08:40:59.483Z,8.50
2019-02-26T08:42:04.992Z,8.20
2019-02-26T08:43:10.502Z,8.50
2019-02-26T08:44:16.008Z,8.40
2019-02-26T08:45:23.585Z,8.30
2019-02-26T08:46:27.026Z,8.40
2019-02-26T08:47:32.540Z,8.50
2019-02-26T08:48:39.459Z,8.60
2019-02-26T08:49:45.635Z,8.90
2019-02-26T08:50:49.062Z,8.80
2019-02-26T08:51:54.574Z,8.90
2019-02-26T08:53:00.079Z,8.70
2019-02-26T08:54:05.588Z,9.20
2019-02-26T08:55:12.905Z,8.50
2019-02-26T08:56:18.629Z,8.70
2019-02-26T08:57:22.116Z,8.70
2019-02-26T08:58:28.265Z,8.50
2019-02-26T08:59:33.134Z,8.80
2019-02-26T09:00:38.644Z,8.60
2019-02-26T09:01:44.167Z,8.80
2019-02-26T09:02:53.824Z,9.00
2019-02-26T09:03:55.839Z,8.90
2019-02-26T09:05:01.573Z,8.90
2019-02-26T09:06:13.112Z,8.80
2019-02-26T09:07:11.708Z,8.40
2019-02-26T09:08:18.190Z,9.00
2019-02-26T09:09:23.521Z,8.90
2019-02-26T09:10:28.232Z,9.10
2019-02-26T09:11:33.894Z,9.00
2019-02-26T09:12:41.253Z,9.20
2019-02-26T09:13:44.770Z,8.90
2019-02-26T09:14:50.270Z,9.40
2019-02-26T09:15:58.177Z,9.10
2019-02-26T09:17:02.146Z,9.50
2019-02-26T09:18:06.799Z,9.30
2019-02-26T09:19:12.306Z,9.00
2019-02-26T09:20:17.827Z,8.50
2019-02-26T09:21:23.331Z,8.80
2019-02-26T09:22:28.854Z,9.20
2019-02-26T09:23:34.353Z,9.30
2019-02-26T09:24:39.861Z,9.50
2019-02-26T09:25:46.468Z,9.20
2019-02-26T09:26:52.084Z,9.30
2019-02-26T09:27:56.395Z,9.30
2019-02-26T09:29:01.906Z,9.00
2019-02-26T09:30:10.479Z,9.60
2019-02-26T09:31:14.209Z,9.60
2019-02-26T09:32:18.435Z,9.60
2019-02-26T09:33:25.052Z,9.40
2019-02-26T09:34:31.777Z,9.40
2019-02-26T09:35:34.972Z,9.50
2019-02-26T09:36:40.480Z,9.70
2019-02-26T09:37:47.886Z,10.40
2019-02-26T09:38:51.551Z,10.20
2019-02-26T09:39:59.128Z,10.10
2019-02-26T09:41:02.530Z,10.30
2019-02-26T09:42:09.200Z,10.50
2019-02-26T09:43:15.555Z,10.40
2019-02-26T09:44:19.057Z,11.10
2019-02-26T09:45:26.909Z,11.00
2019-02-26T09:46:31.735Z,10.90
2019-02-26T09:47:35.589Z,11.60
2019-02-26T09:48:43.344Z,11.80
2019-02-26T09:49:47.826Z,12.00
2019-02-26T09:50:52.122Z,11.70
2019-02-26T09:51:59.061Z,12.40
2019-02-26T09:53:03.143Z,12.60
2019-02-26T09:54:10.893Z,12.90
2019-02-26T09:55:14.169Z,13.20
2019-02-26T09:56:19.682Z,13.20
2019-02-26T09:57:26.348Z,13.30
2019-02-26T09:58:30.707Z,14.00
2019-02-26T09:59:38.382Z,14.60
2019-02-26T10:00:43.132Z,15.00
2019-02-26T10:01:47.239Z,13.90
2019-02-26T10:02:52.746Z,14.10
2019-02-26T10:03:58.360Z,13.90
2019-02-26T10:05:03.778Z,13.40
2019-02-26T10:06:11.266Z,13.50
2019-02-26T10:07:14.807Z,13.70
2019-02-26T10:08:22.218Z,14.60
2019-02-26T10:09:25.825Z,14.30
2019-02-26T10:10:33.781Z,13.50
2019-02-26T10:11:36.850Z,13.20
2019-02-26T10:12:42.362Z,13.10
2019-02-26T10:13:49.379Z,12.90
2019-02-26T10:14:54.663Z,13.40
2019-02-26T10:16:01.234Z,12.90
2019-02-26T10:17:04.402Z,12.30
2019-02-26T10:18:09.921Z,13.20
2019-02-26T10:19:17.113Z,12.60
2019-02-26T10:20:23.261Z,12.80
2019-02-26T10:21:26.464Z,12.50
2019-02-26T10:22:33.181Z,12.70
2019-02-26T10:23:37.487Z,12.90
2019-02-26T10:24:42.988Z,12.30
2019-02-26T10:25:53.180Z,12.90
2019-02-26T10:26:54.019Z,12.60
2019-02-26T10:28:03.126Z,13.00
2019-02-26T10:29:07.154Z,13.00
2019-02-26T10:30:13.365Z,12.50
2019-02-26T10:31:16.080Z,12.20
2019-02-26T10:32:21.590Z,12.50
2019-02-26T10:33:27.087Z,12.20
2019-02-26T10:34:32.606Z,12.20
2019-02-26T10:35:39.727Z,12.70
2019-02-26T10:36:46.584Z,12.50
2019-02-26T10:37:49.143Z,12.90
2019-02-26T10:38:57.197Z,12.10
2019-02-26T10:40:00.318Z,12.50
2019-02-26T10:41:05.685Z,12.30
2019-02-26T10:42:12.132Z,12.10
2019-02-26T10:43:16.717Z,12.00
2019-02-26T10:44:22.235Z,11.60
2019-02-26T10:45:27.731Z,11.90
2019-02-26T10:46:34.608Z,12.40
2019-02-26T10:47:38.757Z,13.00
2019-02-26T10:48:45.602Z,12.40
2019-02-26T10:49:51.390Z,12.40
2019-02-26T10:50:55.302Z,12.70
2019-02-26T10:52:00.813Z,11.60
2019-02-26T10:53:10.301Z,11.60
2019-02-26T10:54:15.177Z,12.00
2019-02-26T10:55:17.857Z,11.80
2019-02-26T10:56:22.862Z,12.10
2019-02-26T10:57:28.869Z,12.40
2019-02-26T10:58:33.897Z,12.80
2019-02-26T10:59:42.153Z,13.20
2019-02-26T11:00:44.915Z,12.90
2019-02-26T11:01:53.234Z,12.60
2019-02-26T11:02:55.942Z,12.30
2019-02-26T11:04:01.455Z,12.60
2019-02-26T11:05:08.646Z,12.90
2019-02-26T11:06:16.467Z,12.90
2019-02-26T11:07:18.000Z,12.90
2019-02-26T11:08:26.632Z,12.30
2019-02-26T11:09:31.431Z,12.80
2019-02-26T11:10:34.540Z,12.70
2019-02-26T11:11:42.212Z,12.10
2019-02-26T11:12:46.445Z,12.60
2019-02-26T11:13:53.698Z,12.20
2019-02-26T11:14:58.448Z,12.70
2019-02-26T11:16:03.064Z,12.20
2019-02-26T11:17:07.620Z,12.20
2019-02-26T11:18:15.015Z,12.20
2019-02-26T11:19:18.636Z,11.70
2019-02-26T11:20:25.244Z,12.40
2019-02-26T11:21:29.669Z,12.00
2019-02-26T11:22:35.178Z,12.20
2019-02-26T11:23:41.535Z,12.70
2019-02-26T11:24:48.363Z,12.00
2019-02-26T11:25:51.742Z,12.00
2019-02-26T11:26:57.250Z,11.90
2019-02-26T11:28:04.815Z,11.90
2019-02-26T11:29:08.272Z,12.10
2019-02-26T11:30:13.785Z,12.50
2019-02-26T11:31:20.500Z,11.90
2019-02-26T11:32:27.102Z,13.00
2019-02-26T11:33:30.589Z,12.10
2019-02-26T11:34:38.254Z,12.40
2019-02-26T11:35:43.620Z,12.50
2019-02-26T11:36:46.880Z,12.10
2019-02-26T11:37:54.796Z,12.40
2019-02-26T11:38:59.938Z,12.30
2019-02-26T11:40:05.379Z,11.30
2019-02-26T11:41:08.929Z,12.70
2019-02-26T11:42:16.472Z,12.70
2019-02-26T11:43:22.933Z,13.10
2019-02-26T11:44:27.637Z,12.90
2019-02-26T11:45:32.867Z,13.10
2019-02-26T11:46:36.503Z,12.90
2019-02-26T11:47:43.816Z,12.40
2019-02-26T11:48:48.393Z,13.80
2019-02-26T11:49:53.053Z,13.80
2019-02-26T11:51:00.832Z,13.40
2019-02-26T11:52:04.636Z,13.50
2019-02-26T11:53:10.078Z,13.60
2019-02-26T11:54:17.511Z,13.50
2019-02-26T11:55:20.620Z,13.00
2019-02-26T11:56:26.140Z,13.10
2019-02-26T11:57:34.929Z,13.50
2019-02-26T11:58:37.170Z,13.00
2019-02-26T11:59:42.905Z,13.00
2019-02-26T12:00:50.642Z,12.20
2019-02-26T12:01:54.210Z,12.30
2019-02-26T12:02:59.226Z,11.50
2019-02-26T12:04:06.075Z,12.30
2019-02-26T12:05:10.743Z,12.00
2019-02-26T12:06:15.767Z,11.30
2019-02-26T12:07:22.294Z,12.30
2019-02-26T12:08:26.794Z,11.30
2019-02-26T12:09:35.057Z,11.90
2019-02-26T12:10:39.969Z,12.90
2019-02-26T12:11:43.343Z,13.40
2019-02-26T12:12:51.348Z,14.10
2019-02-26T12:13:54.374Z,13.70
2019-02-26T12:15:02.012Z,13.30
2019-02-26T12:16:05.408Z,13.00
2019-02-26T12:17:10.918Z,12.50
2019-02-26T12:18:17.903Z,12.90
2019-02-26T12:19:23.119Z,12.40
2019-02-26T12:20:27.480Z,12.40
2019-02-26T12:21:34.581Z,12.80
2019-02-26T12:22:38.509Z,12.60
2019-02-26T12:23:46.427Z,12.60
2019-02-26T12:24:53.046Z,13.40
2019-02-26T12:25:56.426Z,12.60
2019-02-26T12:27:00.558Z,12.80
2019-02-26T12:28:08.153Z,13.10
2019-02-26T12:29:11.599Z,12.80
2019-02-26T12:30:18.123Z,11.60
2019-02-26T12:31:24.550Z,12.20
2019-02-26T12:32:29.611Z,12.60
2019-02-26T12:33:33.658Z,12.10
2019-02-26T12:34:41.230Z,11.60
2019-02-26T12:35:44.687Z,12.40
2019-02-26T12:36:51.161Z,12.80
2019-02-26T12:37:58.847Z,12.30
2019-02-26T12:39:02.433Z,12.20
2019-02-26T12:40:06.749Z,12.40
2019-02-26T12:41:15.596Z,12.20
2019-02-26T12:42:18.720Z,12.80
2019-02-26T12:43:23.315Z,11.70
2019-02-26T12:44:29.609Z,12.10
2019-02-26T12:45:37.870Z,12.00
2019-02-26T12:46:39.850Z,11.90
2019-02-26T12:47:48.156Z,11.60
2019-02-26T12:48:50.885Z,10.50
2019-02-26T12:49:58.565Z,9.60
2019-02-26T12:51:04.627Z,10.10
2019-02-26T12:52:07.459Z,10.90
2019-02-26T12:53:17.255Z,11.50
2019-02-26T12:54:18.482Z,10.30
2019-02-26T12:55:29.482Z,10.50
2019-02-26T12:56:29.986Z,11.40
2019-02-26T12:57:35.061Z,11.00
2019-02-26T12:58:41.097Z,10.50
2019-02-26T12:59:46.094Z,8.90
2019-02-26T13:00:51.627Z,8.30
2019-02-26T13:01:57.167Z,8.30
2019-02-26T13:03:05.681Z,9.20
2019-02-26T13:04:09.665Z,9.50
2019-02-26T13:05:16.855Z,10.40
2019-02-26T13:06:22.732Z,9.70
2019-02-26T13:07:24.760Z,9.60
2019-02-26T13:08:30.285Z,9.30
2019-02-26T13:09:39.083Z,8.80
2019-02-26T13:10:42.537Z,8.90
2019-02-26T13:12:00.514Z,8.80
2019-02-26T13:12:58.600Z,9.90
2019-02-26T13:13:57.951Z,10.80
2019-02-26T13:15:06.503Z,9.90
2019-02-26T13:16:08.954Z,10.10
2019-02-26T13:17:17.314Z,10.10
2019-02-26T13:18:20.016Z,9.90
2019-02-26T13:19:30.152Z,9.50
2019-02-26T13:20:31.063Z,9.80
2019-02-26T13:21:36.602Z,9.60
2019-02-26T13:22:45.815Z,10.00
2019-02-26T13:23:47.648Z,10.20
2019-02-26T13:24:53.175Z,9.20
2019-02-26T13:25:58.695Z,9.30
2019-02-26T13:27:04.222Z,9.20
2019-02-26T13:28:09.747Z,9.40
2019-02-26T13:29:15.278Z,9.70
2019-02-26T13:30:20.800Z,9.90
2019-02-26T13:31:26.388Z,9.30
2019-02-26T13:32:32.345Z,9.00
2019-02-26T13:33:41.148Z,9.80
2019-02-26T13:34:42.917Z,10.20
2019-02-26T13:35:52.340Z,10.90
2019-02-26T13:36:56.795Z,11.80
2019-02-26T13:37:59.508Z,13.20
2019-02-26T13:39:05.210Z,13.10
2019-02-26T13:40:10.556Z,13.30
2019-02-26T13:41:30.307Z,12.40
2019-02-26T13:42:21.622Z,12.60
2019-02-26T13:43:28.623Z,11.90
2019-02-26T13:44:32.674Z,12.30
2019-02-26T13:45:38.199Z,11.90
2019-02-26T13:46:43.726Z,12.60
2019-02-26T13:47:49.271Z,13.10
2019-02-26T13:48:54.798Z,13.30
2019-02-26T13:50:00.321Z,13.10
2019-02-26T13:51:05.846Z,13.60
2019-02-26T13:52:11.381Z,13.50
2019-02-26T13:53:16.907Z,12.90
2019-02-26T13:54:22.440Z,12.90
2019-02-26T13:55:27.970Z,13.10
2019-02-26T13:56:33.502Z,12.70
2019-02-26T13:57:39.026Z,12.90
2019-02-26T13:58:44.578Z,13.90
2019-02-26T13:59:50.085Z,13.30
2019-02-26T14:00:55.614Z,13.00
2019-02-26T14:02:01.153Z,13.80
2019-02-26T14:03:06.678Z,13.80
2019-02-26T14:04:12.205Z,13.80
2019-02-26T14:05:17.734Z,13.50
2019-02-26T14:06:23.266Z,13.00
2019-02-26T14:07:28.806Z,12.80
2019-02-26T14:08:34.325Z,13.10
2019-02-26T14:09:39.856Z,12.90
2019-02-26T14:10:45.489Z,12.80
2019-02-26T14:11:50.912Z,13.00
2019-02-26T14:12:56.450Z,13.20
2019-02-26T14:14:01.973Z,13.40
2019-02-26T14:15:07.503Z,13.50
2019-02-26T14:16:13.041Z,12.60
2019-02-26T14:17:18.564Z,13.20